Decoded Metar for KEZS ( in _UNIDENTIFIED) (IATA:N/A) | Meteo·Mobile Aviation Weather
aviador You're here:

KEZS Decoded Metar

in _UNIDENTIFIED
Report Time2018-08-20 18:35:00
UTC Time2018-08-20 18:44:39
Flight Rules vfr VFR
Wind070° at 07 kt
W.Decomp.*RWY 12: 4.7 kt HW 5.2 kt LCW
RWY 35: 1.0 kt HW 6.9 kt RCW
W.Rank070° ranks 9
Current wind is above 070° avg. (6.3)
Visibility9999 m
Phenomena:N/A
Clouds:N/A
Expected CloudBase > 2,000 ft AGL from Temp-Dew spread
CeilingNone
Temp25°C (ISA +12)
Dew Point20°C (74% RH)
QNH1014 hPa
Density Alt2,438 ft
Elevation814 ft
Report Wrong Elevation
Raw Report
KEZS 201835Z AUTO 07007KT 10SM CLR 25/20 A2995 RMK AO2
T02450198=

Extra information for KEZS:More info

Metar Taf Metar & Taf Last 4 Metars F.Rules Stats Wind Profile Meteogram Temp Stats Metar ALERT Operation Metar Decoded Social comments